Time;durP1;ratioP1;P1;durP2;ratioP2;P2;SDS_P1;SDS_P2;PMS_P1;PMS_P2;Temp;Humidity;BMP_temperature;BMP_pressure;BME280_temperature;BME280_humidity;BME280_pressure;Samples;Min_cycle;Max_cycle;Signal;HPM_P1;HPM_P2
2023/07/30 00:01:47;;;;;;;14.20;1.88;;;;;;;-142.75;100.00;75845.97;5076407;28;20027;-63
2023/07/30 00:04:12;;;;;;;7.57;1.60;;;;;;;-142.75;100.00;75849.91;5082440;28;20392;-63
2023/07/30 00:06:37;;;;;;;13.25;1.73;;;;;;;-142.75;100.00;75826.28;5083274;28;20124;-63
2023/07/30 00:09:03;;;;;;;9.48;2.03;;;;;;;-142.75;100.00;75855.81;5079381;28;20020;-63
2023/07/30 00:11:30;;;;;;;8.90;1.85;;;;;;;-142.75;100.00;75847.94;5084822;28;20077;-63
2023/07/30 00:13:55;;;;;;;10.73;1.65;;;;;;;-142.75;100.00;75851.88;5085552;28;20030;-63
2023/07/30 00:16:21;;;;;;;13.80;1.50;;;;;;;-142.75;100.00;75844.00;5083419;28;20111;-63
2023/07/30 00:18:46;;;;;;;9.93;1.63;;;;;;;-142.75;100.00;75853.84;5087400;28;20059;-61
2023/07/30 00:21:11;;;;;;;15.35;2.03;;;;;;;-142.75;100.00;75869.56;5085264;28;20133;-66
2023/07/30 00:23:37;;;;;;;10.82;2.10;;;;;;;-142.75;100.00;75849.91;5083362;28;20027;-64
2023/07/30 00:26:02;;;;;;;11.43;1.98;;;;;;;-142.75;100.00;75849.91;5075545;28;20108;-63
2023/07/30 00:28:27;;;;;;;8.23;1.83;;;;;;;-142.75;100.00;75844.00;5075981;28;20048;-64
2023/07/30 00:30:53;;;;;;;9.98;1.75;;;;;;;-142.75;100.00;75844.00;5072510;28;20399;-64
2023/07/30 00:33:18;;;;;;;9.15;2.17;;;;;;;-142.75;100.00;75845.97;5072562;28;20021;-64
2023/07/30 00:35:43;;;;;;;11.10;2.08;;;;;;;-142.75;100.00;75853.84;5074707;28;20021;-64
2023/07/30 00:38:09;;;;;;;12.27;2.70;;;;;;;-142.75;100.00;75851.88;5075933;28;20082;-65
2023/07/30 00:40:40;;;;;;;12.48;2.05;;;;;;;-142.75;100.00;75842.03;5075635;28;20032;-64
2023/07/30 00:43:05;;;;;;;15.50;2.35;;;;;;;-142.75;100.00;75849.91;5078740;28;20020;-63
2023/07/30 00:45:31;;;;;;;11.85;2.13;;;;;;;-142.75;100.00;75849.91;5073127;28;20413;-64
2023/07/30 00:47:57;;;;;;;8.07;1.88;;;;;;;-142.75;100.00;75847.94;5071312;28;20036;-64
2023/07/30 00:50:22;;;;;;;5.30;1.58;;;;;;;-142.75;100.00;75845.97;5070077;28;20020;-64
2023/07/30 00:52:48;;;;;;;11.40;1.77;;;;;;;-142.75;100.00;75842.03;5071009;28;20107;-64
2023/07/30 00:55:14;;;;;;;12.60;2.22;;;;;;;-142.75;100.00;75857.78;5071073;28;20107;-64
2023/07/30 00:57:41;;;;;;;11.55;2.20;;;;;;;-142.75;100.00;75855.81;5071141;28;20028;-64
2023/07/30 01:00:08;;;;;;;9.48;1.85;;;;;;;-142.75;100.00;75851.88;5070816;28;20070;-64
2023/07/30 01:02:35;;;;;;;14.18;1.92;;;;;;;-142.75;100.00;75849.91;5070694;28;20028;-64
2023/07/30 01:05:01;;;;;;;9.05;2.25;;;;;;;-142.75;100.00;75869.56;5071083;28;20028;-64
2023/07/30 01:07:26;;;;;;;12.82;2.13;;;;;;;-142.75;100.00;75857.78;5070793;28;20017;-64
2023/07/30 01:09:52;;;;;;;6.88;1.83;;;;;;;-142.75;100.00;75840.06;5071520;28;20484;-64
2023/07/30 01:12:18;;;;;;;13.88;2.70;;;;;;;-142.75;100.00;75859.72;5070567;28;20042;-64
2023/07/30 01:14:45;;;;;;;12.93;2.25;;;;;;;-142.75;100.00;75845.97;5070759;28;20394;-64
2023/07/30 01:17:11;;;;;;;15.18;2.03;;;;;;;-142.75;100.00;75845.97;5070028;28;20028;-64
2023/07/30 01:19:37;;;;;;;6.90;1.60;;;;;;;-142.75;100.00;75849.91;5070606;28;20495;-64
2023/07/30 01:22:02;;;;;;;13.23;2.38;;;;;;;-142.75;100.00;75826.28;5069283;28;20038;-65
2023/07/30 01:24:28;;;;;;;8.70;1.73;;;;;;;-142.75;100.00;75826.28;5070936;28;20029;-64
2023/07/30 01:27:03;;;;;;;14.70;2.50;;;;;;;-142.75;100.00;75810.53;5070805;28;20032;-64
2023/07/30 01:29:40;;;;;;;12.50;2.20;;;;;;;-142.75;100.00;75814.47;5071957;28;20028;-65
2023/07/30 01:32:09;;;;;;;11.77;2.40;;;;;;;-142.75;100.00;75814.47;5070182;28;20056;-64
2023/07/30 01:34:36;;;;;;;9.07;2.10;;;;;;;-142.75;100.00;75808.56;5070435;28;20035;-64
2023/07/30 01:37:04;;;;;;;11.85;2.40;;;;;;;-142.75;100.00;75810.53;5070277;28;20491;-64
2023/07/30 01:39:30;;;;;;;10.30;2.17;;;;;;;-142.75;100.00;75818.41;5070328;28;20024;-64
2023/07/30 01:41:56;;;;;;;19.70;2.20;;;;;;;-142.75;100.00;75824.31;5069953;28;20012;-64
2023/07/30 01:44:21;;;;;;;11.23;2.63;;;;;;;-142.75;100.00;75818.41;5070031;28;20071;-64
2023/07/30 01:46:47;;;;;;;9.35;2.63;;;;;;;-142.75;100.00;75812.50;5070236;28;20028;-64
2023/07/30 01:49:12;;;;;;;13.20;1.88;;;;;;;-142.75;100.00;75814.47;5070100;28;20024;-64
2023/07/30 01:51:37;;;;;;;14.98;2.60;;;;;;;-142.75;100.00;75818.41;5069719;28;20060;-65
2023/07/30 01:54:03;;;;;;;11.43;2.35;;;;;;;-142.75;100.00;75826.28;5070137;28;20052;-65
2023/07/30 01:56:28;;;;;;;10.15;2.40;;;;;;;-142.75;100.00;75838.09;5080100;28;20094;-64
2023/07/30 01:58:54;;;;;;;14.82;2.60;;;;;;;-142.75;100.00;75845.97;5088738;28;20035;-65
2023/07/30 02:01:20;;;;;;;15.32;2.95;;;;;;;-142.75;100.00;75816.44;5090068;28;20541;-64
2023/07/30 02:03:45;;;;;;;8.57;2.33;;;;;;;-142.75;100.00;75830.22;5090102;28;20099;-64
2023/07/30 02:06:11;;;;;;;14.70;2.70;;;;;;;-142.75;100.00;75845.97;5090088;28;20064;-64
2023/07/30 02:08:36;;;;;;;11.27;1.95;;;;;;;-142.75;100.00;75834.16;5090049;28;20030;-64
2023/07/30 02:11:02;;;;;;;8.75;2.30;;;;;;;-142.75;100.00;75822.34;5089700;28;21473;-64
2023/07/30 02:13:27;;;;;;;9.32;2.40;;;;;;;-142.75;100.00;75810.53;5089772;28;20034;-64
2023/07/30 02:15:53;;;;;;;13.55;2.47;;;;;;;-142.75;100.00;75806.59;5089797;28;20032;-64
2023/07/30 02:18:18;;;;;;;10.75;2.72;;;;;;;-142.75;100.00;75824.31;5089975;28;20054;-65
2023/07/30 02:20:43;;;;;;;18.77;3.20;;;;;;;-142.75;100.00;75818.41;5089684;28;20023;-64
2023/07/30 02:23:09;;;;;;;23.02;2.90;;;;;;;-142.75;100.00;75812.50;5089585;28;20016;-64
2023/07/30 02:25:34;;;;;;;9.63;2.70;;;;;;;-142.75;100.00;75812.50;5089780;28;20024;-63
2023/07/30 02:28:01;;;;;;;17.60;2.63;;;;;;;-142.75;100.00;75792.81;5088922;28;20036;-64
2023/07/30 02:30:27;;;;;;;11.23;2.38;;;;;;;-142.75;100.00;75792.81;5089593;28;20457;-65
2023/07/30 02:32:52;;;;;;;9.23;2.72;;;;;;;-142.75;100.00;75784.94;5089228;28;20119;-64
2023/07/30 02:35:18;;;;;;;13.98;2.88;;;;;;;-142.75;100.00;75790.84;5089781;28;20436;-64
2023/07/30 02:37:43;;;;;;;17.63;3.17;;;;;;;-142.75;100.00;75784.94;5085470;28;20059;-64
2023/07/30 02:40:09;;;;;;;16.73;2.83;;;;;;;-142.75;100.00;75786.91;5069224;28;20103;-64
2023/07/30 02:42:34;;;;;;;15.15;2.95;;;;;;;-142.75;100.00;75779.03;5068672;28;20086;-64
2023/07/30 02:45:00;;;;;;;19.95;2.53;;;;;;;-142.75;100.00;75788.88;5069099;28;20024;-64
2023/07/30 02:47:25;;;;;;;15.68;2.65;;;;;;;-142.75;100.00;75781.00;5069062;28;20032;-64
2023/07/30 02:49:50;;;;;;;18.27;2.70;;;;;;;-142.75;100.00;75767.22;5069018;28;20021;-64
2023/07/30 02:52:16;;;;;;;22.05;3.20;;;;;;;-142.75;100.00;75781.00;5068656;28;20024;-64
2023/07/30 02:54:41;;;;;;;14.20;3.33;;;;;;;-142.75;100.00;75781.00;5068783;28;20131;-64
2023/07/30 02:57:06;;;;;;;16.00;3.10;;;;;;;-142.75;100.00;75763.28;5068738;28;20024;-64
2023/07/30 02:59:35;;;;;;;12.18;3.38;;;;;;;-142.75;100.00;75765.25;5068725;28;20028;-64
2023/07/30 03:02:01;;;;;;;15.25;2.97;;;;;;;-142.75;100.00;75755.44;5068655;28;20019;-64
2023/07/30 03:04:27;;;;;;;23.52;2.75;;;;;;;-142.75;100.00;75767.22;5068807;28;20111;-64
2023/07/30 03:06:52;;;;;;;22.08;3.50;;;;;;;-142.75;100.00;75755.44;5068710;28;20035;-64
2023/07/30 03:09:17;;;;;;;22.23;3.40;;;;;;;-142.75;100.00;75747.56;5068916;28;20412;-64
2023/07/30 03:11:42;;;;;;;15.25;2.75;;;;;;;-142.75;100.00;75755.44;5068210;28;20392;-64
2023/07/30 03:14:08;;;;;;;24.00;3.38;;;;;;;-142.75;100.00;75755.44;5068691;28;20395;-64
2023/07/30 03:16:33;;;;;;;16.50;3.50;;;;;;;-142.75;100.00;75751.50;5068530;28;20020;-63
2023/07/30 03:18:58;;;;;;;20.85;4.90;;;;;;;-142.75;100.00;75739.69;5068732;28;20020;-64
2023/07/30 03:21:24;;;;;;;16.73;2.88;;;;;;;-142.75;100.00;75741.66;5068107;28;20055;-64
2023/07/30 03:23:49;;;;;;;14.73;3.60;;;;;;;-142.75;100.00;75761.34;5067990;28;20020;-65
2023/07/30 03:26:14;;;;;;;18.33;2.97;;;;;;;-142.75;100.00;75737.72;5068209;28;20025;-64
2023/07/30 03:28:40;;;;;;;14.90;3.00;;;;;;;-142.75;100.00;75729.84;5068314;28;20594;-64
2023/07/30 03:31:05;;;;;;;15.93;3.20;;;;;;;-142.75;100.00;75735.75;5068188;28;20667;-64
2023/07/30 03:33:31;;;;;;;18.25;2.70;;;;;;;-142.75;100.00;75735.75;5066913;28;20020;-64
2023/07/30 03:35:56;;;;;;;18.30;2.58;;;;;;;-142.75;100.00;75733.78;5068476;28;20484;-64
2023/07/30 03:38:21;;;;;;;22.55;3.72;;;;;;;-142.75;100.00;75739.69;5068329;28;20021;-63
2023/07/30 03:40:47;;;;;;;19.40;2.97;;;;;;;-142.75;100.00;75725.91;5067664;28;20107;-63
2023/07/30 03:43:12;;;;;;;30.92;3.67;;;;;;;-142.75;100.00;75729.84;5068275;28;20417;-64
2023/07/30 03:45:37;;;;;;;23.08;3.10;;;;;;;-142.75;100.00;75727.88;5068449;28;20444;-64
2023/07/30 03:48:03;;;;;;;17.83;3.03;;;;;;;-142.75;100.00;75731.81;5068625;28;20044;-64
2023/07/30 03:50:28;;;;;;;13.68;3.25;;;;;;;-142.75;100.00;75718.03;5068335;28;20025;-64
2023/07/30 03:52:53;;;;;;;19.00;3.67;;;;;;;-142.75;100.00;75731.81;5067810;28;20025;-64
2023/07/30 03:55:19;;;;;;;21.77;2.95;;;;;;;-142.75;100.00;75735.75;5068003;28;20388;-64
2023/07/30 03:57:44;;;;;;;14.80;3.30;;;;;;;-142.75;100.00;75731.81;5068070;28;20032;-64
2023/07/30 04:00:10;;;;;;;15.68;3.42;;;;;;;-142.75;100.00;75723.94;5067919;28;20035;-64
2023/07/30 04:02:35;;;;;;;26.42;3.65;;;;;;;-142.75;100.00;75723.94;5067808;28;20629;-64
2023/07/30 04:05:00;;;;;;;20.27;3.00;;;;;;;-142.75;100.00;75727.88;5068206;28;20028;-64
2023/07/30 04:07:26;;;;;;;15.57;3.28;;;;;;;-142.75;100.00;75729.84;5068073;28;20458;-64
2023/07/30 04:09:51;;;;;;;23.30;4.13;;;;;;;-142.75;100.00;75729.84;5067955;28;20031;-64
2023/07/30 04:12:17;;;;;;;16.38;3.00;;;;;;;-142.75;100.00;75737.72;5067514;28;20025;-64
2023/07/30 04:14:42;;;;;;;19.02;3.33;;;;;;;-142.75;100.00;75731.81;5068053;28;20093;-64
2023/07/30 04:17:08;;;;;;;16.73;3.42;;;;;;;-142.75;100.00;75723.94;5066814;28;20097;-64
2023/07/30 04:19:33;;;;;;;25.05;4.15;;;;;;;-142.75;100.00;75737.72;5068008;28;20082;-63
2023/07/30 04:21:58;;;;;;;24.75;3.20;;;;;;;-142.75;100.00;75727.88;5068067;28;20497;-64
2023/07/30 04:24:25;;;;;;;16.92;3.15;;;;;;;-142.75;100.00;75733.78;5067860;28;20059;-64
2023/07/30 04:26:51;;;;;;;12.07;2.88;;;;;;;-142.75;100.00;75714.09;5067867;28;20155;-64
2023/07/30 04:29:16;;;;;;;24.02;3.40;;;;;;;-142.75;100.00;75712.13;5067914;28;20107;-64
2023/07/30 04:31:41;;;;;;;13.25;2.30;;;;;;;-142.75;100.00;75723.94;5067455;28;20473;-64
2023/07/30 04:34:07;;;;;;;13.82;3.00;;;;;;;-142.75;100.00;75721.97;5067949;28;20032;-64
2023/07/30 04:36:32;;;;;;;20.55;3.53;;;;;;;-142.75;100.00;75721.97;5069450;28;20024;-64
2023/07/30 04:38:57;;;;;;;20.42;3.30;;;;;;;-142.75;100.00;75720.00;5067659;28;20024;-64
2023/07/30 04:41:23;;;;;;;24.45;3.08;;;;;;;-142.75;100.00;75718.03;5067210;28;20055;-64
2023/07/30 04:43:48;;;;;;;18.35;3.45;;;;;;;-142.75;100.00;75729.84;5067808;28;20029;-64
2023/07/30 04:46:13;;;;;;;13.07;2.80;;;;;;;-142.75;100.00;75723.94;5067585;28;20104;-64
2023/07/30 04:48:40;;;;;;;21.02;3.38;;;;;;;-142.75;100.00;75718.03;5067617;28;20101;-65
2023/07/30 04:51:05;;;;;;;22.23;3.42;;;;;;;-142.75;100.00;75733.78;5067296;28;20028;-64
2023/07/30 04:53:30;;;;;;;12.68;2.50;;;;;;;-142.75;100.00;75729.84;5071341;28;20033;-64
2023/07/30 04:55:57;;;;;;;13.80;2.95;;;;;;;-142.75;100.00;75718.03;5071095;28;20035;-64
2023/07/30 04:58:22;;;;;;;15.85;3.33;;;;;;;-142.75;100.00;75733.78;5071259;28;20028;-64
2023/07/30 05:00:48;;;;;;;15.13;3.05;;;;;;;-142.75;100.00;75727.88;5070585;28;20090;-65
2023/07/30 05:03:14;;;;;;;19.30;3.65;;;;;;;-142.75;100.00;75727.88;5071095;28;20475;-64
2023/07/30 05:05:39;;;;;;;12.80;2.65;;;;;;;-142.75;100.00;75729.84;5071073;28;20073;-64
2023/07/30 05:08:04;;;;;;;14.55;2.95;;;;;;;-142.75;100.00;75712.13;5070863;28;20109;-62
2023/07/30 05:10:30;;;;;;;13.93;3.65;;;;;;;-142.75;100.00;75708.19;5070804;28;20038;-64
2023/07/30 05:12:55;;;;;;;20.73;3.28;;;;;;;-142.75;100.00;75745.59;5070352;28;20024;-64
2023/07/30 05:15:20;;;;;;;22.27;3.08;;;;;;;-142.75;100.00;75739.69;5070800;28;20438;-64
2023/07/30 05:17:46;;;;;;;14.90;3.47;;;;;;;-142.75;100.00;75743.63;5070723;28;20480;-65
2023/07/30 05:20:11;;;;;;;21.83;4.30;;;;;;;-142.75;100.00;75737.72;5070678;28;20039;-64
2023/07/30 05:22:36;;;;;;;13.50;3.17;;;;;;;-142.75;100.00;75729.84;5070241;28;20023;-64
2023/07/30 05:25:02;;;;;;;15.00;3.70;;;;;;;-142.75;100.00;75721.97;5075527;28;20073;-65
2023/07/30 05:27:28;;;;;;;22.08;4.30;;;;;;;-142.75;100.00;75753.47;5090429;28;20035;-65
2023/07/30 05:29:54;;;;;;;16.15;3.67;;;;;;;-142.75;100.00;75739.69;5090864;28;20074;-65
2023/07/30 05:32:19;;;;;;;11.43;2.90;;;;;;;-142.75;100.00;75733.78;5090380;28;20765;-64
2023/07/30 05:34:45;;;;;;;20.42;4.05;;;;;;;-142.75;100.00;75737.72;5090720;28;20465;-64
2023/07/30 05:37:10;;;;;;;21.45;4.05;;;;;;;-142.75;100.00;75731.81;5090656;28;20035;-65
2023/07/30 05:39:35;;;;;;;23.48;3.42;;;;;;;-142.75;100.00;75723.94;5090392;28;20020;-65
2023/07/30 05:42:01;;;;;;;14.85;4.07;;;;;;;-142.75;100.00;75759.38;5090275;28;20069;-64
2023/07/30 05:44:27;;;;;;;17.33;3.28;;;;;;;-142.75;100.00;75751.50;5090638;28;20079;-64
2023/07/30 05:46:52;;;;;;;22.58;3.25;;;;;;;-142.75;100.00;75739.69;5090507;28;20052;-64
2023/07/30 05:49:18;;;;;;;15.57;3.05;;;;;;;-142.75;100.00;75735.75;5090227;28;20103;-64
2023/07/30 05:51:43;;;;;;;16.88;3.05;;;;;;;-142.75;100.00;75735.75;5089935;28;20032;-64
2023/07/30 05:54:08;;;;;;;14.27;2.80;;;;;;;-142.75;100.00;75727.88;5090216;28;20114;-64
2023/07/30 05:56:34;;;;;;;16.77;3.28;;;;;;;-142.75;100.00;75723.94;5090200;28;20027;-64
2023/07/30 05:58:59;;;;;;;16.98;2.72;;;;;;;-142.75;100.00;75749.53;5088971;28;20023;-64
2023/07/30 06:01:24;;;;;;;16.05;3.13;;;;;;;-142.75;100.00;75733.78;5088456;28;20027;-64
2023/07/30 06:03:50;;;;;;;23.15;3.65;;;;;;;-142.75;100.00;75731.81;5090182;28;20153;-64
2023/07/30 06:06:16;;;;;;;14.93;2.58;;;;;;;-142.75;100.00;75729.84;5090442;28;20368;-64
2023/07/30 06:08:41;;;;;;;17.45;3.20;;;;;;;-142.75;100.00;75720.00;5090013;28;20023;-64
2023/07/30 06:11:07;;;;;;;17.15;2.97;;;;;;;-142.75;100.00;75708.19;5089285;28;20020;-64
2023/07/30 06:13:32;;;;;;;14.57;2.88;;;;;;;-142.75;100.00;75696.38;5088696;28;20035;-64
2023/07/30 06:15:57;;;;;;;19.08;3.17;;;;;;;-142.75;100.00;75710.16;5089909;28;20116;-64
2023/07/30 06:18:23;;;;;;;17.65;2.92;;;;;;;-142.75;100.00;75706.22;5089799;28;20023;-64
2023/07/30 06:20:48;;;;;;;13.77;2.97;;;;;;;-142.75;100.00;75716.06;5089546;28;20026;-64
2023/07/30 06:23:13;;;;;;;18.08;3.38;;;;;;;-142.75;100.00;75716.06;5088123;28;20024;-64
2023/07/30 06:25:39;;;;;;;18.75;3.25;;;;;;;-142.75;100.00;75739.69;5089233;28;20024;-64
2023/07/30 06:28:05;;;;;;;13.75;2.67;;;;;;;-142.75;100.00;75737.72;5089371;28;20077;-64
2023/07/30 06:30:31;;;;;;;12.23;2.55;;;;;;;-142.75;100.00;75735.75;5089566;28;20054;-64
2023/07/30 06:32:57;;;;;;;13.52;2.67;;;;;;;-142.75;100.00;75735.75;5089113;28;20020;-64
2023/07/30 06:35:22;;;;;;;8.02;2.00;;;;;;;-142.75;100.00;75741.66;5089640;28;20035;-64
2023/07/30 06:37:48;;;;;;;13.38;2.47;;;;;;;-142.75;100.00;75757.41;5089339;28;20473;-64
2023/07/30 06:40:13;;;;;;;18.27;3.55;;;;;;;-142.75;100.00;75765.25;5089515;28;20042;-63
2023/07/30 06:42:38;;;;;;;19.52;2.05;;;;;;;-142.75;100.00;75749.53;5088945;28;20023;-64
2023/07/30 06:45:04;;;;;;;16.27;2.85;;;;;;;-142.75;100.00;75751.50;5089262;28;20059;-64
2023/07/30 06:47:30;;;;;;;18.60;2.55;;;;;;;-142.75;100.00;75759.38;5089443;28;20471;-65
2023/07/30 06:49:55;;;;;;;18.63;3.63;;;;;;;-142.75;100.00;75763.28;5071882;28;20020;-63
2023/07/30 06:52:20;;;;;;;17.77;3.08;;;;;;;-142.75;100.00;75786.91;5068539;28;20496;-64
2023/07/30 06:54:46;;;;;;;14.52;2.50;;;;;;;-142.75;100.00;75781.00;5069382;28;20025;-64
2023/07/30 06:57:11;;;;;;;15.25;2.10;;;;;;;-142.75;100.00;75786.91;5069276;28;20024;-64
2023/07/30 06:59:36;;;;;;;20.33;3.00;;;;;;;-142.75;100.00;75771.16;5068672;28;20124;-64
2023/07/30 07:02:02;;;;;;;19.02;2.78;;;;;;;-142.75;100.00;75788.88;5068596;28;20028;-64
2023/07/30 07:04:27;;;;;;;17.08;2.97;;;;;;;-142.75;100.00;75755.44;5069275;28;20036;-64
2023/07/30 07:06:52;;;;;;;15.07;2.90;;;;;;;-142.75;100.00;75735.75;5068687;28;20117;-64
2023/07/30 07:09:18;;;;;;;21.02;2.85;;;;;;;-142.75;100.00;75761.34;5069320;28;20032;-64
2023/07/30 07:11:43;;;;;;;14.65;2.45;;;;;;;-142.75;100.00;75745.59;5067019;28;20029;-64
2023/07/30 07:14:09;;;;;;;16.25;2.53;;;;;;;-142.75;100.00;75743.63;5068438;28;20024;-64
2023/07/30 07:16:34;;;;;;;13.52;2.75;;;;;;;-142.75;100.00;75690.47;5069378;28;20166;-62
2023/07/30 07:18:59;;;;;;;19.75;2.97;;;;;;;-142.75;100.00;75635.38;5086966;28;20023;-63
2023/07/30 07:21:26;;;;;;;17.95;2.88;;;;;;;-142.75;100.00;75605.84;5088464;28;20027;-64
2023/07/30 07:23:51;;;;;;;11.45;2.60;;;;;;;-142.75;100.00;75621.59;5068497;28;20032;-64
2023/07/30 07:26:17;;;;;;;18.35;2.80;;;;;;;-142.75;100.00;75666.88;5068601;28;20035;-64
2023/07/30 07:28:42;;;;;;;11.55;2.83;;;;;;;-142.75;100.00;75629.47;5067028;28;20127;-64
2023/07/30 07:31:07;;;;;;;11.23;2.33;;;;;;;-142.75;100.00;75651.13;5068262;28;20099;-63
2023/07/30 07:33:33;;;;;;;17.88;4.28;;;;;;;-142.75;100.00;75653.09;5068471;28;20052;-64
2023/07/30 07:36:08;;;;;;;14.05;2.72;;;;;;;-142.75;100.00;75613.72;5068364;28;20107;-63
2023/07/30 07:38:34;;;;;;;13.48;2.40;;;;;;;-142.75;100.00;75666.88;5067194;28;20146;-64
2023/07/30 07:41:00;;;;;;;12.15;2.80;;;;;;;-142.75;100.00;75680.63;5086870;28;20515;-64
2023/07/30 07:43:26;;;;;;;16.60;2.40;;;;;;;-142.75;100.00;75708.19;5088642;28;20498;-64
2023/07/30 07:45:51;;;;;;;10.55;2.25;;;;;;;-142.75;100.00;75725.91;5088687;28;20024;-64
2023/07/30 07:48:17;;;;;;;10.13;2.25;;;;;;;-142.75;100.00;75727.88;5088040;28;20028;-64
2023/07/30 07:50:42;;;;;;;14.20;2.60;;;;;;;-142.75;100.00;75743.63;5088443;28;20024;-64
2023/07/30 07:53:07;;;;;;;16.73;2.88;;;;;;;-142.75;100.00;75771.16;5088223;28;20110;-64
2023/07/30 07:55:33;;;;;;;11.27;2.40;;;;;;;-142.75;100.00;75753.47;5088412;28;20020;-64
2023/07/30 07:57:58;;;;;;;16.08;2.88;;;;;;;-142.75;100.00;75745.59;5088469;28;20058;-64
2023/07/30 08:00:23;;;;;;;12.85;2.40;;;;;;;-142.75;100.00;75735.75;5088088;28;20024;-64
2023/07/30 08:02:49;;;;;;;22.08;3.38;;;;;;;-142.75;100.00;75749.53;5084993;28;20032;-64
2023/07/30 08:05:14;;;;;;;13.40;2.50;;;;;;;-142.75;100.00;75720.00;5073814;28;20028;-64
2023/07/30 08:07:39;;;;;;;12.95;2.10;;;;;;;-142.75;100.00;75714.09;5080746;28;20661;-63
2023/07/30 08:10:05;;;;;;;15.48;2.67;;;;;;;-142.75;100.00;75720.00;5074651;28;20028;-64
2023/07/30 08:12:32;;;;;;;10.13;1.90;;;;;;;-142.75;100.00;75727.88;5068501;28;20095;-64
2023/07/30 08:14:58;;;;;;;16.45;2.20;;;;;;;-142.75;100.00;75716.06;5071371;28;20119;-64
2023/07/30 08:17:24;;;;;;;8.02;2.70;;;;;;;-142.75;100.00;75727.88;5073017;28;20107;-64
2023/07/30 08:19:49;;;;;;;12.45;2.67;;;;;;;-142.75;100.00;75731.81;5076360;28;20020;-63
2023/07/30 08:22:14;;;;;;;17.10;2.95;;;;;;;-142.75;100.00;75755.44;5073619;28;20024;-62
2023/07/30 08:24:40;;;;;;;14.43;2.20;;;;;;;-142.75;100.00;75743.63;5068825;28;20403;-63
2023/07/30 08:27:05;;;;;;;12.82;1.85;;;;;;;-142.75;100.00;75755.44;5072384;28;20028;-64
2023/07/30 08:29:31;;;;;;;10.48;2.50;;;;;;;-142.75;100.00;75733.78;5076472;28;20271;-64
2023/07/30 08:31:56;;;;;;;11.82;2.88;;;;;;;-142.75;100.00;75729.84;5070943;28;20056;-64
2023/07/30 08:34:23;;;;;;;10.85;2.03;;;;;;;-142.75;100.00;75721.97;5069518;28;20070;-64
2023/07/30 08:36:48;;;;;;;6.15;1.83;;;;;;;-142.75;100.00;75720.00;5070751;28;20028;-64
2023/07/30 08:39:13;;;;;;;16.13;3.15;;;;;;;-142.75;100.00;75712.13;5071444;28;20510;-64
2023/07/30 08:41:39;;;;;;;17.95;2.47;;;;;;;-142.75;100.00;75723.94;5072654;28;20028;-64
2023/07/30 08:44:04;;;;;;;14.25;2.58;;;;;;;-142.75;100.00;75696.38;5090843;28;20024;-64
2023/07/30 08:46:30;;;;;;;15.00;2.08;;;;;;;-142.75;100.00;75672.78;5090953;28;20031;-64
2023/07/30 08:48:57;;;;;;;11.75;1.90;;;;;;;-142.75;100.00;75672.78;5089081;28;20028;-64
2023/07/30 08:51:24;;;;;;;11.40;2.33;;;;;;;-142.75;100.00;75651.13;5070264;28;20075;-64
2023/07/30 08:53:51;;;;;;;8.13;1.40;;;;;;;-142.75;100.00;75660.97;5070555;28;20380;-64
2023/07/30 08:56:16;;;;;;;11.80;1.92;;;;;;;-142.75;100.00;75664.91;5071796;28;20150;-64
2023/07/30 08:58:44;;;;;;;11.75;1.75;;;;;;;-142.75;100.00;75645.22;5070667;28;20137;-64
2023/07/30 09:01:12;;;;;;;6.28;1.40;;;;;;;-142.75;100.00;75641.28;5070492;28;20029;-64
2023/07/30 09:03:39;;;;;;;10.30;1.58;;;;;;;-142.75;100.00;75641.28;5070591;28;20020;-64
2023/07/30 09:06:05;;;;;;;6.25;1.13;;;;;;;-142.75;100.00;75609.78;5070261;28;20047;-64
2023/07/30 09:08:32;;;;;;;8.50;1.38;;;;;;;-142.75;100.00;75576.34;5072816;28;20411;-64
2023/07/30 09:11:05;;;;;;;6.60;1.55;;;;;;;-142.75;100.00;75611.75;5073257;28;20025;-64
2023/07/30 09:13:37;;;;;;;6.15;1.15;;;;;;;-142.75;100.00;75629.47;5071089;28;20036;-64
2023/07/30 09:16:12;;;;;;;5.80;1.50;;;;;;;-142.75;100.00;75621.59;5071800;28;20036;-64
2023/07/30 09:18:42;;;;;;;6.97;1.53;;;;;;;-142.75;100.00;75633.41;5069290;28;20032;-64
2023/07/30 09:21:09;;;;;;;7.93;1.30;;;;;;;-142.75;100.00;75684.56;5069933;28;20028;-64
2023/07/30 09:23:39;;;;;;;8.80;1.67;;;;;;;-142.75;100.00;75694.41;5077121;28;20027;-63
2023/07/30 09:26:05;;;;;;;10.45;1.50;;;;;;;-142.75;100.00;75745.59;5075825;28;20028;-64
2023/07/30 09:28:31;;;;;;;6.20;1.25;;;;;;;-142.75;100.00;75721.97;5069948;28;20024;-63
2023/07/30 09:31:05;;;;;;;7.40;1.42;;;;;;;-142.75;100.00;75727.88;5068369;28;20051;-64
2023/07/30 09:33:32;;;;;;;9.70;1.63;;;;;;;-142.75;100.00;75729.84;5068079;28;20025;-64
2023/07/30 09:35:58;;;;;;;6.38;1.10;;;;;;;-142.75;100.00;75751.50;5068322;28;20028;-64
2023/07/30 09:38:25;;;;;;;6.70;1.17;;;;;;;-142.75;100.00;75692.44;5070167;28;20028;-64
2023/07/30 09:40:51;;;;;;;9.15;1.05;;;;;;;-142.75;100.00;75647.19;5069346;28;20569;-64
2023/07/30 09:43:16;;;;;;;6.20;1.23;;;;;;;-142.75;100.00;75597.97;5069700;28;20023;-64
2023/07/30 09:45:46;;;;;;;7.88;1.65;;;;;;;-142.75;100.00;75594.06;5069285;28;20097;-64
2023/07/30 09:48:12;;;;;;;8.73;1.48;;;;;;;-142.75;100.00;75633.41;5088416;28;20564;-65
2023/07/30 09:50:38;;;;;;;7.55;1.17;;;;;;;-142.75;100.00;75617.66;5089494;28;20032;-64
2023/07/30 09:53:04;;;;;;;5.72;1.52;;;;;;;-142.75;100.00;75572.41;5089588;28;20104;-64
2023/07/30 09:55:30;;;;;;;5.05;1.13;;;;;;;-142.75;100.00;75515.31;5089645;28;20035;-65
2023/07/30 09:57:55;;;;;;;8.25;1.17;;;;;;;-142.75;100.00;75499.59;5089447;28;20036;-65
2023/07/30 10:00:21;;;;;;;5.43;1.17;;;;;;;-142.75;100.00;75460.22;5069195;28;20024;-65
2023/07/30 10:02:48;;;;;;;8.80;1.48;;;;;;;-142.75;100.00;75416.94;5071351;28;20016;-65
2023/07/30 10:05:19;;;;;;;5.60;1.00;;;;;;;-142.75;100.00;75391.34;5068935;28;20102;-65
2023/07/30 10:08:00;;;;;;;5.90;0.90;;;;;;;-142.75;100.00;75359.88;5069649;28;20056;-65
2023/07/30 10:10:28;;;;;;;6.35;1.23;;;;;;;-142.75;100.00;75359.88;5067200;28;20040;-65
2023/07/30 10:12:57;;;;;;;4.80;1.10;;;;;;;-142.75;100.00;75365.75;5068533;28;20040;-65
2023/07/30 10:15:23;;;;;;;5.30;1.05;;;;;;;-142.75;100.00;75393.31;5069011;28;20031;-65
2023/07/30 10:17:50;;;;;;;5.00;1.10;;;;;;;-142.75;100.00;75369.69;5072733;28;20028;-65
2023/07/30 10:20:21;;;;;;;6.20;0.85;;;;;;;-142.75;100.00;75369.69;5076652;28;20060;-65
2023/07/30 10:22:54;;;;;;;5.55;1.02;;;;;;;-142.75;95.72;75428.75;5068566;28;20031;-65
2023/07/30 10:25:22;;;;;;;8.60;0.80;;;;;;;-142.75;100.00;75436.59;5068925;28;20423;-65
2023/07/30 10:27:50;;;;;;;4.63;0.85;;;;;;;-142.75;100.00;75481.88;5073812;28;20483;-65
2023/07/30 10:30:19;;;;;;;6.28;1.60;;;;;;;-142.75;100.00;75499.59;5076772;28;20028;-65
2023/07/30 10:32:59;;;;;;;4.90;1.00;;;;;;;-142.75;100.00;75450.38;5068246;28;20036;-65
2023/07/30 10:35:43;;;;;;;10.15;1.30;;;;;;;-142.75;100.00;75440.53;5069565;28;20029;-64
2023/07/30 10:38:27;;;;;;;5.18;1.35;;;;;;;-142.75;100.00;75444.47;5069271;28;20020;-64
2023/07/30 10:41:07;;;;;;;5.00;0.90;;;;;;;-142.75;100.00;75513.38;5087218;28;20062;-64
2023/07/30 10:43:42;;;;;;;6.53;1.13;;;;;;;-142.75;100.00;75552.72;5077026;28;20028;-64
2023/07/30 10:46:10;;;;;;;4.97;1.05;;;;;;;-142.75;100.00;75586.19;5070696;28;20074;-64
2023/07/30 10:48:40;;;;;;;6.53;1.08;;;;;;;-142.75;100.00;75599.94;5073012;28;20031;-64
2023/07/30 10:51:08;;;;;;;5.47;0.93;;;;;;;-142.75;100.00;75592.09;5073952;28;20020;-64
2023/07/30 10:53:36;;;;;;;4.28;0.93;;;;;;;-142.75;100.00;75617.66;5076779;28;20051;-64
2023/07/30 10:56:03;;;;;;;3.53;0.73;;;;;;;-142.75;100.00;75643.25;5070576;28;20035;-64
2023/07/30 10:58:33;;;;;;;5.25;0.80;;;;;;;-142.75;100.00;75664.91;5070494;28;20365;-64
2023/07/30 11:01:01;;;;;;;7.60;0.80;;;;;;;-142.75;100.00;75716.06;5072202;28;20059;-63